sensor_id;sensor_type;location;lat;lon;timestamp;P1;durP1;ratioP1;P2;durP2;ratioP2
62050;SDS011;48008;51.204;6.766;2022-08-21T00:00:08;17.13;;;6.00;;
62050;SDS011;48008;51.204;6.766;2022-08-21T00:02:43;18.85;;;6.43;;
62050;SDS011;48008;51.204;6.766;2022-08-21T00:05:12;17.13;;;5.60;;
62050;SDS011;48008;51.204;6.766;2022-08-21T00:07:39;17.73;;;6.35;;
62050;SDS011;48008;51.204;6.766;2022-08-21T00:10:06;17.88;;;5.93;;
62050;SDS011;48008;51.204;6.766;2022-08-21T00:12:33;19.20;;;6.88;;
62050;SDS011;48008;51.204;6.766;2022-08-21T00:14:59;19.80;;;6.38;;
62050;SDS011;48008;51.204;6.766;2022-08-21T00:17:26;22.25;;;6.43;;
62050;SDS011;48008;51.204;6.766;2022-08-21T00:19:53;17.85;;;7.07;;
62050;SDS011;48008;51.204;6.766;2022-08-21T00:22:19;16.42;;;6.70;;
62050;SDS011;48008;51.204;6.766;2022-08-21T00:24:46;16.33;;;6.38;;
62050;SDS011;48008;51.204;6.766;2022-08-21T00:27:13;23.73;;;7.10;;
62050;SDS011;48008;51.204;6.766;2022-08-21T00:29:40;19.00;;;7.72;;
62050;SDS011;48008;51.204;6.766;2022-08-21T00:32:07;20.17;;;7.97;;
62050;SDS011;48008;51.204;6.766;2022-08-21T00:34:34;27.45;;;7.90;;
62050;SDS011;48008;51.204;6.766;2022-08-21T00:37:00;25.48;;;7.97;;
62050;SDS011;48008;51.204;6.766;2022-08-21T00:39:27;23.70;;;8.18;;
62050;SDS011;48008;51.204;6.766;2022-08-21T00:41:54;23.85;;;7.88;;
62050;SDS011;48008;51.204;6.766;2022-08-21T00:44:20;20.55;;;8.27;;
62050;SDS011;48008;51.204;6.766;2022-08-21T00:46:47;20.60;;;8.32;;
62050;SDS011;48008;51.204;6.766;2022-08-21T00:49:16;30.50;;;8.55;;
62050;SDS011;48008;51.204;6.766;2022-08-21T00:51:47;20.85;;;7.82;;
62050;SDS011;48008;51.204;6.766;2022-08-21T00:54:18;21.33;;;7.40;;
62050;SDS011;48008;51.204;6.766;2022-08-21T00:56:50;26.05;;;7.90;;
62050;SDS011;48008;51.204;6.766;2022-08-21T00:59:19;21.15;;;7.80;;
62050;SDS011;48008;51.204;6.766;2022-08-21T01:01:47;21.33;;;7.35;;
62050;SDS011;48008;51.204;6.766;2022-08-21T01:04:16;20.48;;;7.45;;
62050;SDS011;48008;51.204;6.766;2022-08-21T01:06:43;18.65;;;7.97;;
62050;SDS011;48008;51.204;6.766;2022-08-21T01:09:10;21.35;;;7.85;;
62050;SDS011;48008;51.204;6.766;2022-08-21T01:11:38;19.20;;;7.80;;
62050;SDS011;48008;51.204;6.766;2022-08-21T01:14:05;16.65;;;7.32;;
62050;SDS011;48008;51.204;6.766;2022-08-21T01:16:32;19.95;;;7.35;;
62050;SDS011;48008;51.204;6.766;2022-08-21T01:18:59;22.75;;;8.30;;
62050;SDS011;48008;51.204;6.766;2022-08-21T01:21:26;20.08;;;7.88;;
62050;SDS011;48008;51.204;6.766;2022-08-21T01:23:55;21.95;;;8.52;;
62050;SDS011;48008;51.204;6.766;2022-08-21T01:26:25;22.67;;;9.23;;
62050;SDS011;48008;51.204;6.766;2022-08-21T01:28:59;22.23;;;9.40;;
62050;SDS011;48008;51.204;6.766;2022-08-21T01:31:38;18.77;;;9.23;;
62050;SDS011;48008;51.204;6.766;2022-08-21T01:34:05;24.30;;;9.88;;
62050;SDS011;48008;51.204;6.766;2022-08-21T01:36:34;25.08;;;9.88;;
62050;SDS011;48008;51.204;6.766;2022-08-21T01:39:00;21.92;;;9.68;;
62050;SDS011;48008;51.204;6.766;2022-08-21T01:41:28;28.20;;;10.40;;
62050;SDS011;48008;51.204;6.766;2022-08-21T01:43:54;24.92;;;10.15;;
62050;SDS011;48008;51.204;6.766;2022-08-21T01:46:21;27.50;;;10.52;;
62050;SDS011;48008;51.204;6.766;2022-08-21T01:48:48;22.17;;;10.43;;
62050;SDS011;48008;51.204;6.766;2022-08-21T01:51:15;23.70;;;9.75;;
62050;SDS011;48008;51.204;6.766;2022-08-21T01:53:42;24.30;;;10.00;;
62050;SDS011;48008;51.204;6.766;2022-08-21T01:56:10;22.45;;;9.63;;
62050;SDS011;48008;51.204;6.766;2022-08-21T01:58:40;22.00;;;10.60;;
62050;SDS011;48008;51.204;6.766;2022-08-21T02:01:07;22.30;;;10.52;;
62050;SDS011;48008;51.204;6.766;2022-08-21T02:03:35;21.83;;;10.02;;
62050;SDS011;48008;51.204;6.766;2022-08-21T02:06:03;21.85;;;9.95;;
62050;SDS011;48008;51.204;6.766;2022-08-21T02:08:31;24.10;;;9.75;;
62050;SDS011;48008;51.204;6.766;2022-08-21T02:10:58;23.17;;;10.52;;
62050;SDS011;48008;51.204;6.766;2022-08-21T02:13:26;21.00;;;10.48;;
62050;SDS011;48008;51.204;6.766;2022-08-21T02:15:52;23.48;;;10.75;;
62050;SDS011;48008;51.204;6.766;2022-08-21T02:18:19;22.05;;;10.25;;
62050;SDS011;48008;51.204;6.766;2022-08-21T02:20:47;23.42;;;10.13;;
62050;SDS011;48008;51.204;6.766;2022-08-21T02:23:15;21.52;;;9.93;;
62050;SDS011;48008;51.204;6.766;2022-08-21T02:25:42;27.17;;;10.32;;
62050;SDS011;48008;51.204;6.766;2022-08-21T02:28:10;26.23;;;10.45;;
62050;SDS011;48008;51.204;6.766;2022-08-21T02:30:40;17.85;;;9.70;;
62050;SDS011;48008;51.204;6.766;2022-08-21T02:33:09;25.15;;;10.98;;
62050;SDS011;48008;51.204;6.766;2022-08-21T02:35:39;25.27;;;10.68;;
62050;SDS011;48008;51.204;6.766;2022-08-21T02:38:09;24.23;;;11.32;;
62050;SDS011;48008;51.204;6.766;2022-08-21T02:40:38;23.75;;;11.27;;
62050;SDS011;48008;51.204;6.766;2022-08-21T02:43:07;28.08;;;11.77;;
62050;SDS011;48008;51.204;6.766;2022-08-21T02:45:34;28.23;;;11.70;;
62050;SDS011;48008;51.204;6.766;2022-08-21T02:48:03;24.33;;;12.32;;
62050;SDS011;48008;51.204;6.766;2022-08-21T02:50:34;29.35;;;12.75;;
62050;SDS011;48008;51.204;6.766;2022-08-21T02:53:04;23.27;;;12.32;;
62050;SDS011;48008;51.204;6.766;2022-08-21T02:55:33;28.27;;;12.20;;
62050;SDS011;48008;51.204;6.766;2022-08-21T02:58:02;21.38;;;12.65;;
62050;SDS011;48008;51.204;6.766;2022-08-21T03:00:31;30.10;;;11.70;;
62050;SDS011;48008;51.204;6.766;2022-08-21T03:02:59;22.20;;;11.52;;
62050;SDS011;48008;51.204;6.766;2022-08-21T03:05:26;21.63;;;12.30;;
62050;SDS011;48008;51.204;6.766;2022-08-21T03:07:57;26.70;;;11.90;;
62050;SDS011;48008;51.204;6.766;2022-08-21T03:10:25;24.08;;;12.45;;
62050;SDS011;48008;51.204;6.766;2022-08-21T03:12:52;24.52;;;12.85;;
62050;SDS011;48008;51.204;6.766;2022-08-21T03:15:21;24.55;;;13.23;;
62050;SDS011;48008;51.204;6.766;2022-08-21T03:17:50;26.45;;;13.80;;
62050;SDS011;48008;51.204;6.766;2022-08-21T03:20:18;22.40;;;13.43;;
62050;SDS011;48008;51.204;6.766;2022-08-21T03:22:48;34.25;;;14.05;;
62050;SDS011;48008;51.204;6.766;2022-08-21T03:25:16;29.90;;;13.95;;
62050;SDS011;48008;51.204;6.766;2022-08-21T03:27:44;25.52;;;14.35;;
62050;SDS011;48008;51.204;6.766;2022-08-21T03:30:11;32.80;;;14.73;;
62050;SDS011;48008;51.204;6.766;2022-08-21T03:32:38;24.92;;;14.38;;
62050;SDS011;48008;51.204;6.766;2022-08-21T03:35:04;31.85;;;15.00;;
62050;SDS011;48008;51.204;6.766;2022-08-21T03:37:33;28.85;;;15.65;;
62050;SDS011;48008;51.204;6.766;2022-08-21T03:39:59;30.92;;;15.13;;
62050;SDS011;48008;51.204;6.766;2022-08-21T03:42:26;27.02;;;15.20;;
62050;SDS011;48008;51.204;6.766;2022-08-21T03:44:53;47.72;;;16.08;;
62050;SDS011;48008;51.204;6.766;2022-08-21T03:47:20;32.60;;;15.40;;
62050;SDS011;48008;51.204;6.766;2022-08-21T03:49:48;32.55;;;15.70;;
62050;SDS011;48008;51.204;6.766;2022-08-21T03:52:15;34.58;;;16.05;;
62050;SDS011;48008;51.204;6.766;2022-08-21T03:54:43;32.00;;;15.52;;
62050;SDS011;48008;51.204;6.766;2022-08-21T03:57:11;33.00;;;16.48;;
62050;SDS011;48008;51.204;6.766;2022-08-21T03:59:38;26.85;;;14.98;;
62050;SDS011;48008;51.204;6.766;2022-08-21T04:02:06;27.75;;;15.23;;
62050;SDS011;48008;51.204;6.766;2022-08-21T04:04:33;30.20;;;15.38;;
62050;SDS011;48008;51.204;6.766;2022-08-21T04:07:00;27.67;;;15.23;;
62050;SDS011;48008;51.204;6.766;2022-08-21T04:09:28;30.77;;;15.57;;
62050;SDS011;48008;51.204;6.766;2022-08-21T04:11:56;26.42;;;14.63;;
62050;SDS011;48008;51.204;6.766;2022-08-21T04:14:23;30.73;;;15.55;;
62050;SDS011;48008;51.204;6.766;2022-08-21T04:16:49;24.80;;;14.98;;
62050;SDS011;48008;51.204;6.766;2022-08-21T04:19:16;29.30;;;16.27;;
62050;SDS011;48008;51.204;6.766;2022-08-21T04:21:43;29.63;;;15.88;;
62050;SDS011;48008;51.204;6.766;2022-08-21T04:24:10;30.30;;;15.52;;
62050;SDS011;48008;51.204;6.766;2022-08-21T04:26:37;29.55;;;15.57;;
62050;SDS011;48008;51.204;6.766;2022-08-21T04:29:04;25.08;;;15.48;;
62050;SDS011;48008;51.204;6.766;2022-08-21T04:31:33;29.80;;;15.70;;
62050;SDS011;48008;51.204;6.766;2022-08-21T04:34:03;24.88;;;16.23;;
62050;SDS011;48008;51.204;6.766;2022-08-21T04:36:32;27.83;;;16.27;;
62050;SDS011;48008;51.204;6.766;2022-08-21T04:39:00;37.30;;;16.85;;
62050;SDS011;48008;51.204;6.766;2022-08-21T04:41:27;30.15;;;15.95;;
62050;SDS011;48008;51.204;6.766;2022-08-21T04:43:54;29.05;;;16.40;;
62050;SDS011;48008;51.204;6.766;2022-08-21T04:46:22;28.45;;;16.10;;
62050;SDS011;48008;51.204;6.766;2022-08-21T04:48:49;32.13;;;16.88;;
62050;SDS011;48008;51.204;6.766;2022-08-21T04:51:18;28.35;;;16.05;;
62050;SDS011;48008;51.204;6.766;2022-08-21T04:53:50;32.00;;;16.50;;
62050;SDS011;48008;51.204;6.766;2022-08-21T04:56:22;31.70;;;16.42;;
62050;SDS011;48008;51.204;6.766;2022-08-21T04:58:52;35.22;;;16.60;;
62050;SDS011;48008;51.204;6.766;2022-08-21T05:01:23;33.35;;;16.58;;
62050;SDS011;48008;51.204;6.766;2022-08-21T05:03:53;28.75;;;16.45;;
62050;SDS011;48008;51.204;6.766;2022-08-21T05:06:22;27.38;;;16.20;;
62050;SDS011;48008;51.204;6.766;2022-08-21T05:08:50;31.33;;;15.80;;
62050;SDS011;48008;51.204;6.766;2022-08-21T05:11:21;26.85;;;16.10;;
62050;SDS011;48008;51.204;6.766;2022-08-21T05:13:48;35.30;;;16.20;;
62050;SDS011;48008;51.204;6.766;2022-08-21T05:16:16;30.15;;;15.77;;
62050;SDS011;48008;51.204;6.766;2022-08-21T05:18:43;32.83;;;17.15;;
62050;SDS011;48008;51.204;6.766;2022-08-21T05:21:10;28.88;;;16.50;;
62050;SDS011;48008;51.204;6.766;2022-08-21T05:23:36;27.95;;;15.48;;
62050;SDS011;48008;51.204;6.766;2022-08-21T05:26:03;30.48;;;16.52;;
62050;SDS011;48008;51.204;6.766;2022-08-21T05:28:31;36.47;;;16.60;;
62050;SDS011;48008;51.204;6.766;2022-08-21T05:30:58;31.88;;;17.17;;
62050;SDS011;48008;51.204;6.766;2022-08-21T05:33:24;34.05;;;16.90;;
62050;SDS011;48008;51.204;6.766;2022-08-21T05:35:52;31.55;;;16.20;;
62050;SDS011;48008;51.204;6.766;2022-08-21T05:38:23;34.88;;;17.05;;
62050;SDS011;48008;51.204;6.766;2022-08-21T05:40:54;34.03;;;16.90;;
62050;SDS011;48008;51.204;6.766;2022-08-21T05:43:21;32.42;;;17.10;;
62050;SDS011;48008;51.204;6.766;2022-08-21T05:45:47;32.83;;;16.45;;
62050;SDS011;48008;51.204;6.766;2022-08-21T05:48:15;30.00;;;16.27;;
62050;SDS011;48008;51.204;6.766;2022-08-21T05:50:44;28.92;;;15.57;;
62050;SDS011;48008;51.204;6.766;2022-08-21T05:53:13;31.15;;;15.98;;
62050;SDS011;48008;51.204;6.766;2022-08-21T05:55:42;32.08;;;17.00;;
62050;SDS011;48008;51.204;6.766;2022-08-21T05:58:11;33.35;;;17.38;;
62050;SDS011;48008;51.204;6.766;2022-08-21T06:00:40;32.15;;;17.27;;
62050;SDS011;48008;51.204;6.766;2022-08-21T06:03:10;34.22;;;17.50;;
62050;SDS011;48008;51.204;6.766;2022-08-21T06:05:39;30.50;;;16.05;;
62050;SDS011;48008;51.204;6.766;2022-08-21T06:08:06;34.20;;;15.93;;
62050;SDS011;48008;51.204;6.766;2022-08-21T06:10:32;36.15;;;16.25;;
62050;SDS011;48008;51.204;6.766;2022-08-21T06:12:59;33.05;;;13.60;;
62050;SDS011;48008;51.204;6.766;2022-08-21T06:15:26;32.20;;;14.27;;
62050;SDS011;48008;51.204;6.766;2022-08-21T06:17:53;31.15;;;13.95;;
62050;SDS011;48008;51.204;6.766;2022-08-21T06:20:20;32.28;;;12.85;;
62050;SDS011;48008;51.204;6.766;2022-08-21T06:22:47;24.33;;;11.40;;
62050;SDS011;48008;51.204;6.766;2022-08-21T06:25:14;28.13;;;10.77;;
62050;SDS011;48008;51.204;6.766;2022-08-21T06:27:41;24.88;;;10.30;;
62050;SDS011;48008;51.204;6.766;2022-08-21T06:30:08;26.17;;;10.25;;
62050;SDS011;48008;51.204;6.766;2022-08-21T06:32:35;25.80;;;9.57;;
62050;SDS011;48008;51.204;6.766;2022-08-21T06:35:03;20.80;;;9.30;;
62050;SDS011;48008;51.204;6.766;2022-08-21T06:37:30;17.63;;;8.27;;
62050;SDS011;48008;51.204;6.766;2022-08-21T06:39:57;25.63;;;8.57;;
62050;SDS011;48008;51.204;6.766;2022-08-21T06:42:25;23.02;;;8.90;;
62050;SDS011;48008;51.204;6.766;2022-08-21T06:44:54;23.58;;;8.45;;
62050;SDS011;48008;51.204;6.766;2022-08-21T06:47:20;21.48;;;8.52;;
62050;SDS011;48008;51.204;6.766;2022-08-21T06:49:47;18.70;;;7.53;;
62050;SDS011;48008;51.204;6.766;2022-08-21T06:52:14;22.75;;;7.55;;
62050;SDS011;48008;51.204;6.766;2022-08-21T06:54:41;18.08;;;6.60;;
62050;SDS011;48008;51.204;6.766;2022-08-21T06:57:08;24.60;;;7.35;;
62050;SDS011;48008;51.204;6.766;2022-08-21T06:59:35;22.27;;;7.40;;
62050;SDS011;48008;51.204;6.766;2022-08-21T07:02:01;27.25;;;9.13;;
62050;SDS011;48008;51.204;6.766;2022-08-21T07:04:28;19.33;;;6.82;;
62050;SDS011;48008;51.204;6.766;2022-08-21T07:06:55;18.90;;;7.28;;
62050;SDS011;48008;51.204;6.766;2022-08-21T07:09:22;20.67;;;6.55;;
62050;SDS011;48008;51.204;6.766;2022-08-21T07:11:50;21.15;;;6.60;;
62050;SDS011;48008;51.204;6.766;2022-08-21T07:14:19;19.27;;;6.50;;
62050;SDS011;48008;51.204;6.766;2022-08-21T07:16:47;18.60;;;6.25;;
62050;SDS011;48008;51.204;6.766;2022-08-21T07:19:15;21.13;;;5.95;;
62050;SDS011;48008;51.204;6.766;2022-08-21T07:21:42;25.95;;;6.72;;
62050;SDS011;48008;51.204;6.766;2022-08-21T07:24:09;20.67;;;6.28;;
62050;SDS011;48008;51.204;6.766;2022-08-21T07:26:35;18.60;;;4.82;;
62050;SDS011;48008;51.204;6.766;2022-08-21T07:29:03;26.13;;;7.13;;
62050;SDS011;48008;51.204;6.766;2022-08-21T07:31:30;20.55;;;5.43;;
62050;SDS011;48008;51.204;6.766;2022-08-21T07:33:57;19.50;;;6.22;;
62050;SDS011;48008;51.204;6.766;2022-08-21T07:36:24;21.00;;;5.35;;
62050;SDS011;48008;51.204;6.766;2022-08-21T07:38:50;17.52;;;4.97;;
62050;SDS011;48008;51.204;6.766;2022-08-21T07:41:19;23.77;;;5.15;;
62050;SDS011;48008;51.204;6.766;2022-08-21T07:43:48;24.65;;;4.85;;
62050;SDS011;48008;51.204;6.766;2022-08-21T07:46:15;22.95;;;4.00;;
62050;SDS011;48008;51.204;6.766;2022-08-21T07:48:42;11.77;;;3.75;;
62050;SDS011;48008;51.204;6.766;2022-08-21T07:51:10;14.60;;;3.45;;
62050;SDS011;48008;51.204;6.766;2022-08-21T07:53:39;13.95;;;3.72;;
62050;SDS011;48008;51.204;6.766;2022-08-21T07:56:06;13.82;;;3.17;;
62050;SDS011;48008;51.204;6.766;2022-08-21T07:58:34;14.07;;;3.17;;
62050;SDS011;48008;51.204;6.766;2022-08-21T08:01:01;11.20;;;3.13;;
62050;SDS011;48008;51.204;6.766;2022-08-21T08:03:27;15.20;;;2.72;;
62050;SDS011;48008;51.204;6.766;2022-08-21T08:05:55;13.70;;;3.15;;
62050;SDS011;48008;51.204;6.766;2022-08-21T08:08:23;11.80;;;2.65;;
62050;SDS011;48008;51.204;6.766;2022-08-21T08:10:50;13.00;;;2.92;;
62050;SDS011;48008;51.204;6.766;2022-08-21T08:13:18;15.30;;;2.90;;
62050;SDS011;48008;51.204;6.766;2022-08-21T08:15:44;14.70;;;2.95;;
62050;SDS011;48008;51.204;6.766;2022-08-21T08:18:11;15.57;;;3.38;;
62050;SDS011;48008;51.204;6.766;2022-08-21T08:20:38;14.15;;;2.78;;
62050;SDS011;48008;51.204;6.766;2022-08-21T08:23:04;12.75;;;2.60;;
62050;SDS011;48008;51.204;6.766;2022-08-21T08:25:31;12.88;;;2.47;;
62050;SDS011;48008;51.204;6.766;2022-08-21T08:27:58;15.43;;;2.80;;
62050;SDS011;48008;51.204;6.766;2022-08-21T08:30:25;15.50;;;2.40;;
62050;SDS011;48008;51.204;6.766;2022-08-21T08:32:53;12.07;;;2.30;;
62050;SDS011;48008;51.204;6.766;2022-08-21T08:35:20;15.73;;;2.55;;
62050;SDS011;48008;51.204;6.766;2022-08-21T08:37:46;13.63;;;2.50;;
62050;SDS011;48008;51.204;6.766;2022-08-21T08:40:14;11.80;;;2.40;;
62050;SDS011;48008;51.204;6.766;2022-08-21T08:42:49;10.35;;;2.20;;
62050;SDS011;48008;51.204;6.766;2022-08-21T08:45:18;13.35;;;2.53;;
62050;SDS011;48008;51.204;6.766;2022-08-21T08:47:51;8.77;;;2.33;;
62050;SDS011;48008;51.204;6.766;2022-08-21T08:50:28;13.65;;;2.60;;
62050;SDS011;48008;51.204;6.766;2022-08-21T08:53:17;9.10;;;2.35;;
62050;SDS011;48008;51.204;6.766;2022-08-21T08:55:48;9.85;;;2.50;;
62050;SDS011;48008;51.204;6.766;2022-08-21T08:58:20;15.30;;;2.50;;
62050;SDS011;48008;51.204;6.766;2022-08-21T09:00:52;10.73;;;2.60;;
62050;SDS011;48008;51.204;6.766;2022-08-21T09:03:21;10.48;;;2.33;;
62050;SDS011;48008;51.204;6.766;2022-08-21T09:05:52;11.68;;;3.10;;
62050;SDS011;48008;51.204;6.766;2022-08-21T09:12:14;11.77;;;3.00;;
62050;SDS011;48008;51.204;6.766;2022-08-21T09:14:54;14.20;;;2.70;;
62050;SDS011;48008;51.204;6.766;2022-08-21T09:20:32;11.43;;;2.80;;
62050;SDS011;48008;51.204;6.766;2022-08-21T09:26:11;14.98;;;2.92;;
62050;SDS011;48008;51.204;6.766;2022-08-21T09:28:40;10.23;;;3.08;;
62050;SDS011;48008;51.204;6.766;2022-08-21T09:31:08;10.13;;;3.10;;
62050;SDS011;48008;51.204;6.766;2022-08-21T09:33:47;13.60;;;3.30;;
62050;SDS011;48008;51.204;6.766;2022-08-21T09:36:22;11.88;;;2.65;;
62050;SDS011;48008;51.204;6.766;2022-08-21T09:38:54;7.55;;;2.30;;
62050;SDS011;48008;51.204;6.766;2022-08-21T09:41:27;11.07;;;2.72;;
62050;SDS011;48008;51.204;6.766;2022-08-21T09:43:56;12.20;;;2.72;;
62050;SDS011;48008;51.204;6.766;2022-08-21T09:46:26;9.63;;;2.42;;
62050;SDS011;48008;51.204;6.766;2022-08-21T09:48:55;12.57;;;2.50;;
62050;SDS011;48008;51.204;6.766;2022-08-21T09:51:26;13.37;;;2.43;;
62050;SDS011;48008;51.204;6.766;2022-08-21T09:54:09;11.13;;;2.00;;
62050;SDS011;48008;51.204;6.766;2022-08-21T09:56:59;10.35;;;2.30;;
62050;SDS011;48008;51.204;6.766;2022-08-21T09:59:47;12.65;;;2.42;;
62050;SDS011;48008;51.204;6.766;2022-08-21T10:04:55;10.00;;;2.45;;
62050;SDS011;48008;51.204;6.766;2022-08-21T10:07:25;11.02;;;2.20;;
62050;SDS011;48008;51.204;6.766;2022-08-21T10:09:58;10.90;;;2.53;;
62050;SDS011;48008;51.204;6.766;2022-08-21T10:12:35;11.35;;;2.67;;
62050;SDS011;48008;51.204;6.766;2022-08-21T10:18:18;7.75;;;2.20;;
62050;SDS011;48008;51.204;6.766;2022-08-21T10:20:54;7.80;;;2.05;;
62050;SDS011;48008;51.204;6.766;2022-08-21T10:26:39;11.80;;;2.55;;
62050;SDS011;48008;51.204;6.766;2022-08-21T10:29:33;12.75;;;2.60;;
62050;SDS011;48008;51.204;6.766;2022-08-21T10:32:28;12.70;;;2.33;;
62050;SDS011;48008;51.204;6.766;2022-08-21T10:35:08;9.55;;;2.58;;
62050;SDS011;48008;51.204;6.766;2022-08-21T10:38:06;13.38;;;2.55;;
62050;SDS011;48008;51.204;6.766;2022-08-21T10:40:53;9.38;;;2.38;;
62050;SDS011;48008;51.204;6.766;2022-08-21T10:43:57;9.90;;;2.70;;
62050;SDS011;48008;51.204;6.766;2022-08-21T10:52:16;10.25;;;2.75;;
62050;SDS011;48008;51.204;6.766;2022-08-21T10:55:08;11.88;;;2.47;;
62050;SDS011;48008;51.204;6.766;2022-08-21T10:57:47;10.82;;;3.20;;
62050;SDS011;48008;51.204;6.766;2022-08-21T11:00:27;9.57;;;2.63;;
62050;SDS011;48008;51.204;6.766;2022-08-21T11:03:03;15.00;;;2.80;;
62050;SDS011;48008;51.204;6.766;2022-08-21T11:05:41;11.02;;;2.83;;
62050;SDS011;48008;51.204;6.766;2022-08-21T11:08:17;11.55;;;3.50;;
62050;SDS011;48008;51.204;6.766;2022-08-21T11:11:06;11.88;;;3.10;;
62050;SDS011;48008;51.204;6.766;2022-08-21T11:13:43;14.73;;;3.35;;
62050;SDS011;48008;51.204;6.766;2022-08-21T11:16:36;12.02;;;2.72;;
62050;SDS011;48008;51.204;6.766;2022-08-21T11:19:09;12.95;;;2.78;;
62050;SDS011;48008;51.204;6.766;2022-08-21T11:21:54;12.93;;;2.58;;
62050;SDS011;48008;51.204;6.766;2022-08-21T11:24:34;13.52;;;3.42;;
62050;SDS011;48008;51.204;6.766;2022-08-21T11:27:25;10.55;;;2.60;;
62050;SDS011;48008;51.204;6.766;2022-08-21T11:29:59;7.95;;;2.38;;
62050;SDS011;48008;51.204;6.766;2022-08-21T11:35:48;10.63;;;2.58;;
62050;SDS011;48008;51.204;6.766;2022-08-21T11:41:46;12.18;;;2.78;;
62050;SDS011;48008;51.204;6.766;2022-08-21T11:47:05;8.70;;;2.10;;
62050;SDS011;48008;51.204;6.766;2022-08-21T11:49:45;9.90;;;2.35;;
62050;SDS011;48008;51.204;6.766;2022-08-21T11:52:35;13.75;;;2.58;;
62050;SDS011;48008;51.204;6.766;2022-08-21T11:57:52;10.23;;;2.28;;
62050;SDS011;48008;51.204;6.766;2022-08-21T12:00:26;8.70;;;2.35;;
62050;SDS011;48008;51.204;6.766;2022-08-21T12:03:09;11.85;;;2.47;;
62050;SDS011;48008;51.204;6.766;2022-08-21T12:05:41;14.07;;;2.60;;
62050;SDS011;48008;51.204;6.766;2022-08-21T12:08:13;11.07;;;2.80;;
62050;SDS011;48008;51.204;6.766;2022-08-21T12:11:24;10.45;;;2.38;;
62050;SDS011;48008;51.204;6.766;2022-08-21T12:16:44;9.95;;;2.45;;
62050;SDS011;48008;51.204;6.766;2022-08-21T12:24:37;11.85;;;2.70;;
62050;SDS011;48008;51.204;6.766;2022-08-21T12:27:20;9.65;;;2.25;;
62050;SDS011;48008;51.204;6.766;2022-08-21T12:29:58;13.07;;;2.72;;
62050;SDS011;48008;51.204;6.766;2022-08-21T12:32:28;12.60;;;2.92;;
62050;SDS011;48008;51.204;6.766;2022-08-21T12:35:07;14.68;;;2.53;;
62050;SDS011;48008;51.204;6.766;2022-08-21T12:37:44;14.52;;;3.80;;
62050;SDS011;48008;51.204;6.766;2022-08-21T12:40:25;12.02;;;2.60;;
62050;SDS011;48008;51.204;6.766;2022-08-21T12:42:57;9.52;;;2.95;;
62050;SDS011;48008;51.204;6.766;2022-08-21T12:45:28;10.73;;;2.50;;
62050;SDS011;48008;51.204;6.766;2022-08-21T12:48:09;9.30;;;2.42;;
62050;SDS011;48008;51.204;6.766;2022-08-21T12:50:46;9.65;;;2.30;;
62050;SDS011;48008;51.204;6.766;2022-08-21T12:53:24;11.73;;;2.35;;
62050;SDS011;48008;51.204;6.766;2022-08-21T12:55:55;10.82;;;2.13;;
62050;SDS011;48008;51.204;6.766;2022-08-21T12:58:27;14.52;;;3.30;;
62050;SDS011;48008;51.204;6.766;2022-08-21T13:00:55;10.38;;;2.63;;
62050;SDS011;48008;51.204;6.766;2022-08-21T13:03:27;10.77;;;2.72;;
62050;SDS011;48008;51.204;6.766;2022-08-21T13:05:55;8.30;;;2.30;;
62050;SDS011;48008;51.204;6.766;2022-08-21T13:08:22;11.90;;;2.90;;
62050;SDS011;48008;51.204;6.766;2022-08-21T13:10:56;9.35;;;2.47;;
62050;SDS011;48008;51.204;6.766;2022-08-21T13:13:27;10.15;;;2.05;;
62050;SDS011;48008;51.204;6.766;2022-08-21T13:15:59;8.52;;;1.83;;
62050;SDS011;48008;51.204;6.766;2022-08-21T13:18:32;11.77;;;2.10;;
62050;SDS011;48008;51.204;6.766;2022-08-21T13:21:07;9.07;;;2.03;;
62050;SDS011;48008;51.204;6.766;2022-08-21T13:23:41;11.48;;;2.40;;
62050;SDS011;48008;51.204;6.766;2022-08-21T13:26:11;7.18;;;2.00;;
62050;SDS011;48008;51.204;6.766;2022-08-21T13:28:43;11.95;;;2.30;;
62050;SDS011;48008;51.204;6.766;2022-08-21T13:31:16;9.65;;;2.70;;
62050;SDS011;48008;51.204;6.766;2022-08-21T13:33:47;11.02;;;2.25;;
62050;SDS011;48008;51.204;6.766;2022-08-21T13:36:17;8.93;;;2.40;;
62050;SDS011;48008;51.204;6.766;2022-08-21T13:38:52;8.60;;;1.98;;
62050;SDS011;48008;51.204;6.766;2022-08-21T13:41:24;10.98;;;2.25;;
62050;SDS011;48008;51.204;6.766;2022-08-21T13:43:58;9.40;;;2.47;;
62050;SDS011;48008;51.204;6.766;2022-08-21T13:46:31;9.23;;;2.10;;
62050;SDS011;48008;51.204;6.766;2022-08-21T13:49:01;8.55;;;2.10;;
62050;SDS011;48008;51.204;6.766;2022-08-21T13:51:31;12.48;;;2.22;;
62050;SDS011;48008;51.204;6.766;2022-08-21T13:54:00;8.95;;;2.30;;
62050;SDS011;48008;51.204;6.766;2022-08-21T13:56:30;11.88;;;2.30;;
62050;SDS011;48008;51.204;6.766;2022-08-21T13:59:00;10.25;;;2.38;;
62050;SDS011;48008;51.204;6.766;2022-08-21T14:01:31;11.57;;;2.20;;
62050;SDS011;48008;51.204;6.766;2022-08-21T14:04:04;10.95;;;2.00;;
62050;SDS011;48008;51.204;6.766;2022-08-21T14:06:38;8.30;;;2.75;;
62050;SDS011;48008;51.204;6.766;2022-08-21T14:09:10;8.93;;;2.20;;
62050;SDS011;48008;51.204;6.766;2022-08-21T14:11:39;9.43;;;2.22;;
62050;SDS011;48008;51.204;6.766;2022-08-21T14:14:19;12.27;;;2.92;;
62050;SDS011;48008;51.204;6.766;2022-08-21T14:16:53;12.48;;;3.05;;
62050;SDS011;48008;51.204;6.766;2022-08-21T14:19:27;11.38;;;2.70;;
62050;SDS011;48008;51.204;6.766;2022-08-21T14:25:01;10.98;;;2.20;;
62050;SDS011;48008;51.204;6.766;2022-08-21T14:27:33;6.97;;;1.90;;
62050;SDS011;48008;51.204;6.766;2022-08-21T14:30:04;7.90;;;2.03;;
62050;SDS011;48008;51.204;6.766;2022-08-21T14:32:38;10.02;;;2.20;;
62050;SDS011;48008;51.204;6.766;2022-08-21T14:35:07;7.93;;;2.60;;
62050;SDS011;48008;51.204;6.766;2022-08-21T14:37:34;9.77;;;2.17;;
62050;SDS011;48008;51.204;6.766;2022-08-21T14:40:02;11.23;;;2.20;;
62050;SDS011;48008;51.204;6.766;2022-08-21T14:42:30;8.80;;;2.30;;
62050;SDS011;48008;51.204;6.766;2022-08-21T14:45:00;8.52;;;2.10;;
62050;SDS011;48008;51.204;6.766;2022-08-21T14:47:28;10.20;;;2.25;;
62050;SDS011;48008;51.204;6.766;2022-08-21T14:49:56;8.10;;;1.98;;
62050;SDS011;48008;51.204;6.766;2022-08-21T14:52:23;10.65;;;2.55;;
62050;SDS011;48008;51.204;6.766;2022-08-21T14:54:50;8.32;;;2.30;;
62050;SDS011;48008;51.204;6.766;2022-08-21T14:57:16;13.38;;;2.70;;
62050;SDS011;48008;51.204;6.766;2022-08-21T14:59:43;9.60;;;2.35;;
62050;SDS011;48008;51.204;6.766;2022-08-21T15:02:10;8.13;;;2.28;;
62050;SDS011;48008;51.204;6.766;2022-08-21T15:04:37;8.57;;;2.00;;
62050;SDS011;48008;51.204;6.766;2022-08-21T15:07:04;8.43;;;2.20;;
62050;SDS011;48008;51.204;6.766;2022-08-21T15:09:31;8.63;;;2.00;;
62050;SDS011;48008;51.204;6.766;2022-08-21T15:11:58;11.05;;;2.17;;
62050;SDS011;48008;51.204;6.766;2022-08-21T15:14:28;11.98;;;2.20;;
62050;SDS011;48008;51.204;6.766;2022-08-21T15:16:57;13.40;;;2.30;;
62050;SDS011;48008;51.204;6.766;2022-08-21T15:19:23;6.70;;;1.90;;
62050;SDS011;48008;51.204;6.766;2022-08-21T15:21:51;9.00;;;2.10;;
62050;SDS011;48008;51.204;6.766;2022-08-21T15:24:17;8.82;;;2.22;;
62050;SDS011;48008;51.204;6.766;2022-08-21T15:26:45;6.82;;;1.90;;
62050;SDS011;48008;51.204;6.766;2022-08-21T15:29:12;7.28;;;1.77;;
62050;SDS011;48008;51.204;6.766;2022-08-21T15:31:55;9.40;;;2.17;;
62050;SDS011;48008;51.204;6.766;2022-08-21T15:34:26;9.82;;;2.50;;
62050;SDS011;48008;51.204;6.766;2022-08-21T15:36:55;11.55;;;4.00;;
62050;SDS011;48008;51.204;6.766;2022-08-21T15:39:24;8.15;;;2.10;;